createdAt,value
2019-03-27T00:01:22.607Z,6.87
2019-03-27T00:03:53.005Z,10.30
2019-03-27T00:06:22.857Z,10.93
2019-03-27T00:08:54.977Z,6.93
2019-03-27T00:11:25.249Z,11.57
2019-03-27T00:13:56.511Z,14.00
2019-03-27T00:16:26.532Z,8.87
2019-03-27T00:18:57.177Z,9.50
2019-03-27T00:21:27.624Z,7.30
2019-03-27T00:24:00.034Z,14.43
2019-03-27T00:26:30.490Z,8.87
2019-03-27T00:29:00.305Z,8.37
2019-03-27T00:31:30.130Z,7.67
2019-03-27T00:34:00.217Z,10.18
2019-03-27T00:36:30.129Z,8.77
2019-03-27T00:39:00.003Z,6.40
2019-03-27T00:41:29.869Z,10.53
2019-03-27T00:43:59.831Z,7.93
2019-03-27T00:46:30.431Z,5.70
2019-03-27T00:49:00.541Z,10.97
2019-03-27T00:51:30.659Z,10.00
2019-03-27T00:54:00.548Z,14.53
2019-03-27T00:56:30.377Z,12.97
2019-03-27T00:59:00.203Z,9.43
2019-03-27T01:01:30.351Z,12.27
2019-03-27T01:04:00.327Z,10.47
2019-03-27T01:06:30.654Z,9.57
2019-03-27T01:09:00.729Z,12.07
2019-03-27T01:11:31.189Z,12.20
2019-03-27T01:14:01.021Z,10.73
2019-03-27T01:16:32.018Z,13.87
2019-03-27T01:19:02.526Z,20.97
2019-03-27T01:21:32.943Z,7.17
2019-03-27T01:24:03.092Z,6.70
2019-03-27T01:26:33.184Z,13.87
2019-03-27T01:29:03.502Z,8.40
2019-03-27T01:31:33.235Z,12.30
2019-03-27T01:34:03.001Z,12.47
2019-03-27T01:36:32.799Z,10.57
2019-03-27T01:39:03.006Z,5.43
2019-03-27T01:41:32.739Z,9.27
2019-03-27T01:44:03.176Z,11.17
2019-03-27T01:46:33.361Z,6.90
2019-03-27T01:49:03.158Z,14.70
2019-03-27T01:51:33.012Z,9.90
2019-03-27T01:54:03.335Z,8.37
2019-03-27T01:56:33.630Z,6.90
2019-03-27T01:59:05.804Z,14.70
2019-03-27T02:01:35.604Z,8.10
2019-03-27T02:04:05.722Z,10.77
2019-03-27T02:06:36.066Z,9.73
2019-03-27T02:09:06.726Z,7.03
2019-03-27T02:11:36.450Z,9.70
2019-03-27T02:14:06.185Z,10.30
2019-03-27T02:16:36.300Z,8.60
2019-03-27T02:19:06.531Z,10.87
2019-03-27T02:21:37.069Z,7.53
2019-03-27T02:24:07.655Z,8.23
2019-03-27T02:26:37.905Z,6.67
2019-03-27T02:29:07.973Z,6.07
2019-03-27T02:31:39.649Z,12.87
2019-03-27T02:34:09.713Z,10.70
2019-03-27T02:36:40.246Z,9.83
2019-03-27T02:39:10.085Z,6.73
2019-03-27T02:41:40.082Z,6.70
2019-03-27T02:44:10.718Z,6.77
2019-03-27T02:46:41.185Z,7.57
2019-03-27T02:49:11.035Z,8.27
2019-03-27T02:51:41.089Z,10.90
2019-03-27T02:54:11.512Z,9.57
2019-03-27T02:56:41.633Z,14.40
2019-03-27T02:59:11.690Z,12.07
2019-03-27T03:01:41.440Z,9.73
2019-03-27T03:04:11.536Z,9.70
2019-03-27T03:06:41.458Z,7.70
2019-03-27T03:09:12.050Z,13.63
2019-03-27T03:11:42.310Z,9.27
2019-03-27T03:14:12.598Z,8.47
2019-03-27T03:16:43.994Z,10.03
2019-03-27T03:19:15.462Z,4.40
2019-03-27T03:21:45.232Z,5.20
2019-03-27T03:24:14.975Z,14.47
2019-03-27T03:26:45.016Z,14.13
2019-03-27T03:29:15.121Z,7.27
2019-03-27T03:31:45.133Z,15.03
2019-03-27T03:34:15.002Z,12.80
2019-03-27T03:36:45.806Z,9.70
2019-03-27T03:39:15.623Z,13.13
2019-03-27T03:41:46.108Z,10.17
2019-03-27T03:44:16.570Z,14.17
2019-03-27T03:46:58.857Z,8.67
2019-03-27T03:49:19.127Z,13.87
2019-03-27T03:51:49.587Z,13.47
2019-03-27T03:54:21.156Z,13.00
2019-03-27T03:56:53.375Z,9.47
2019-03-27T03:59:24.470Z,17.07
2019-03-27T04:01:55.900Z,10.87
2019-03-27T04:04:26.612Z,13.73
2019-03-27T04:06:56.717Z,11.67
2019-03-27T04:09:27.168Z,10.23
2019-03-27T04:11:57.084Z,16.90
2019-03-27T04:14:27.100Z,21.23
2019-03-27T04:16:56.931Z,12.87
2019-03-27T04:19:26.705Z,11.47
2019-03-27T04:21:57.243Z,14.43
2019-03-27T04:24:27.078Z,19.93
2019-03-27T04:26:56.788Z,17.00
2019-03-27T04:29:26.839Z,17.73
2019-03-27T04:31:56.575Z,17.17
2019-03-27T04:34:27.451Z,13.80
2019-03-27T04:36:57.520Z,17.50
2019-03-27T04:39:30.439Z,10.77
2019-03-27T04:42:00.228Z,16.20
2019-03-27T04:44:30.321Z,15.20
2019-03-27T04:47:00.467Z,15.13
2019-03-27T04:49:30.406Z,13.30
2019-03-27T04:52:02.035Z,15.27
2019-03-27T04:54:32.433Z,19.03
2019-03-27T04:57:02.786Z,15.17
2019-03-27T04:59:33.537Z,12.37
2019-03-27T05:02:06.425Z,14.40
2019-03-27T05:04:35.787Z,18.00
2019-03-27T05:07:05.785Z,15.78
2019-03-27T05:09:35.820Z,16.40
2019-03-27T05:12:06.192Z,14.37
2019-03-27T05:14:36.217Z,15.93
2019-03-27T05:17:06.870Z,13.47
2019-03-27T05:19:37.225Z,15.77
2019-03-27T05:22:07.309Z,13.27
2019-03-27T05:24:38.204Z,14.60
2019-03-27T05:27:09.021Z,14.63
2019-03-27T05:29:39.913Z,14.63
2019-03-27T05:32:09.928Z,9.50
2019-03-27T05:34:39.938Z,11.23
2019-03-27T05:37:10.602Z,11.70
2019-03-27T05:39:41.105Z,13.97
2019-03-27T05:42:10.956Z,12.70
2019-03-27T05:44:41.068Z,16.87
2019-03-27T05:47:11.717Z,17.77
2019-03-27T05:49:41.760Z,17.03
2019-03-27T05:52:12.104Z,14.53
2019-03-27T05:54:42.154Z,20.17
2019-03-27T05:57:13.302Z,10.90
2019-03-27T05:59:46.195Z,16.03
2019-03-27T06:02:16.355Z,18.30
2019-03-27T06:04:46.753Z,17.27
2019-03-27T06:07:16.848Z,18.73
2019-03-27T06:09:47.080Z,18.50
2019-03-27T06:12:17.551Z,9.70
2019-03-27T06:14:47.760Z,12.10
2019-03-27T06:17:18.199Z,18.70
2019-03-27T06:19:48.286Z,14.20
2019-03-27T06:22:18.121Z,14.77
2019-03-27T06:24:48.188Z,10.63
2019-03-27T06:27:19.251Z,16.83
2019-03-27T06:29:49.261Z,27.80
2019-03-27T06:32:19.099Z,20.57
2019-03-27T06:34:49.433Z,21.43
2019-03-27T06:37:20.097Z,25.50
2019-03-27T06:39:50.429Z,15.70
2019-03-27T06:42:20.824Z,16.97
2019-03-27T06:44:50.999Z,17.00
2019-03-27T06:47:23.021Z,22.73
2019-03-27T06:49:53.141Z,19.90
2019-03-27T06:52:25.373Z,19.33
2019-03-27T06:54:56.019Z,16.03
2019-03-27T06:57:25.784Z,20.37
2019-03-27T06:59:55.952Z,15.87
2019-03-27T07:02:28.720Z,16.80
2019-03-27T07:04:58.137Z,19.87
2019-03-27T07:07:28.904Z,19.60
2019-03-27T07:09:59.074Z,14.27
2019-03-27T07:12:29.578Z,16.00
2019-03-27T07:14:59.441Z,19.63
2019-03-27T07:17:30.927Z,16.70
2019-03-27T07:20:01.384Z,13.27
2019-03-27T07:22:31.515Z,21.67
2019-03-27T07:25:07.654Z,13.53
2019-03-27T07:27:38.219Z,14.83
2019-03-27T07:30:08.543Z,8.10
2019-03-27T07:32:40.183Z,13.27
2019-03-27T07:35:10.615Z,15.03
2019-03-27T07:37:41.409Z,11.17
2019-03-27T07:40:11.977Z,9.17
2019-03-27T07:42:42.024Z,15.13
2019-03-27T07:45:12.061Z,16.43
2019-03-27T07:47:42.608Z,10.77
2019-03-27T07:50:12.928Z,11.97
2019-03-27T07:52:42.723Z,17.23
2019-03-27T07:55:19.258Z,19.20
2019-03-27T07:57:45.165Z,14.93
2019-03-27T08:00:16.540Z,13.77
2019-03-27T08:02:46.800Z,13.63
2019-03-27T08:05:17.005Z,12.07
2019-03-27T08:07:47.746Z,9.27
2019-03-27T08:10:18.244Z,10.50
2019-03-27T08:12:47.993Z,12.57
2019-03-27T08:15:18.360Z,11.13
2019-03-27T08:17:48.378Z,13.57
2019-03-27T08:20:18.181Z,12.23
2019-03-27T08:22:48.353Z,12.17
2019-03-27T08:25:19.223Z,12.40
2019-03-27T08:27:52.495Z,16.60
2019-03-27T08:30:22.596Z,9.07
2019-03-27T08:32:52.760Z,8.87
2019-03-27T08:35:22.769Z,13.10
2019-03-27T08:37:52.602Z,13.70
2019-03-27T08:40:22.757Z,12.53
2019-03-27T08:42:53.329Z,9.37
2019-03-27T08:45:23.229Z,19.43
2019-03-27T08:47:53.378Z,17.90
2019-03-27T08:50:23.599Z,10.77
2019-03-27T08:52:55.056Z,9.57
2019-03-27T08:55:25.560Z,10.67
2019-03-27T08:57:55.998Z,14.50
2019-03-27T09:00:47.530Z,14.70
2019-03-27T09:03:17.571Z,16.13
2019-03-27T09:05:49.868Z,15.13
2019-03-27T09:08:20.380Z,10.63
2019-03-27T09:10:50.585Z,10.83
2019-03-27T09:13:20.525Z,8.90
2019-03-27T09:15:51.115Z,6.90
2019-03-27T09:18:21.041Z,18.07
2019-03-27T09:20:51.166Z,13.90
2019-03-27T09:23:20.961Z,14.07
2019-03-27T09:25:50.869Z,15.57
2019-03-27T09:28:21.229Z,15.20
2019-03-27T09:30:52.273Z,11.00
2019-03-27T09:33:22.701Z,11.87
2019-03-27T09:35:52.731Z,8.47
2019-03-27T09:38:22.842Z,11.43
2019-03-27T09:40:52.697Z,11.43
2019-03-27T09:43:22.507Z,11.60
2019-03-27T09:45:53.109Z,13.90
2019-03-27T09:48:23.159Z,19.93
2019-03-27T09:50:55.072Z,11.03
2019-03-27T09:53:24.889Z,14.13
2019-03-27T09:55:54.942Z,13.77
2019-03-27T09:58:25.474Z,11.03
2019-03-27T10:00:57.069Z,12.87
2019-03-27T10:03:26.937Z,11.33
2019-03-27T10:05:56.928Z,8.83
2019-03-27T10:08:28.121Z,18.50
2019-03-27T10:10:58.274Z,15.63
2019-03-27T10:13:28.615Z,14.47
2019-03-27T10:15:58.948Z,11.23
2019-03-27T10:18:28.776Z,13.03
2019-03-27T10:20:59.283Z,9.40
2019-03-27T10:23:29.177Z,11.90
2019-03-27T10:25:59.734Z,14.27
2019-03-27T10:28:29.494Z,11.80
2019-03-27T10:30:59.917Z,14.70
2019-03-27T10:33:30.153Z,14.00
2019-03-27T10:35:59.948Z,13.90
2019-03-27T10:38:29.864Z,10.40
2019-03-27T10:41:01.109Z,14.50
2019-03-27T10:43:32.057Z,10.53
2019-03-27T10:46:02.042Z,13.07
2019-03-27T10:48:32.641Z,14.73
2019-03-27T10:51:02.576Z,11.67
2019-03-27T10:53:33.278Z,14.83
2019-03-27T10:56:03.220Z,12.37
2019-03-27T10:58:33.642Z,22.17
2019-03-27T11:01:08.759Z,19.43
2019-03-27T11:03:42.938Z,15.07
2019-03-27T11:06:13.056Z,15.63
2019-03-27T11:08:44.545Z,15.30
2019-03-27T11:11:14.740Z,16.57
2019-03-27T11:13:45.760Z,14.93
2019-03-27T11:16:15.570Z,14.17
2019-03-27T11:18:45.398Z,10.17
2019-03-27T11:21:15.243Z,15.67
2019-03-27T11:23:45.865Z,12.33
2019-03-27T11:26:15.787Z,20.60
2019-03-27T11:28:45.934Z,17.47
2019-03-27T11:31:16.431Z,14.63
2019-03-27T11:33:46.757Z,12.63
2019-03-27T11:36:16.757Z,14.57
2019-03-27T11:38:47.733Z,19.23
2019-03-27T11:41:18.037Z,17.57
2019-03-27T11:43:54.805Z,11.33
2019-03-27T11:46:20.597Z,14.60
2019-03-27T11:48:50.893Z,15.23
2019-03-27T11:51:21.173Z,14.60
2019-03-27T11:53:51.566Z,15.53
2019-03-27T11:56:22.050Z,15.10
2019-03-27T11:58:52.381Z,13.50
2019-03-27T12:01:22.248Z,15.17
2019-03-27T12:03:52.427Z,14.57
2019-03-27T12:06:22.360Z,14.20
2019-03-27T12:08:52.088Z,18.50
2019-03-27T12:11:22.343Z,13.00
2019-03-27T12:13:52.485Z,11.10
2019-03-27T12:16:22.614Z,15.47
2019-03-27T12:18:52.641Z,13.60
2019-03-27T12:21:22.659Z,12.90
2019-03-27T12:23:52.712Z,14.43
2019-03-27T12:26:22.565Z,13.60
2019-03-27T12:28:52.933Z,14.80
2019-03-27T12:31:23.117Z,14.07
2019-03-27T12:33:53.237Z,11.97
2019-03-27T12:36:23.370Z,13.87
2019-03-27T12:38:53.486Z,11.40
2019-03-27T12:41:24.226Z,11.73
2019-03-27T12:43:54.375Z,9.70
2019-03-27T12:46:24.803Z,14.90
2019-03-27T12:48:54.803Z,11.37
2019-03-27T12:51:24.640Z,13.00
2019-03-27T12:53:54.541Z,9.17
2019-03-27T12:56:24.590Z,10.90
2019-03-27T12:58:54.448Z,12.13
2019-03-27T13:01:24.228Z,9.97
2019-03-27T13:03:54.328Z,10.97
2019-03-27T13:06:24.559Z,11.60
2019-03-27T13:08:55.389Z,6.53
2019-03-27T13:11:25.577Z,9.00
2019-03-27T13:13:56.266Z,8.57
2019-03-27T13:16:27.144Z,14.47
2019-03-27T13:18:57.235Z,11.50
2019-03-27T13:21:27.198Z,9.17
2019-03-27T13:23:57.853Z,9.37
2019-03-27T13:26:28.285Z,9.70
2019-03-27T13:28:58.479Z,12.57
2019-03-27T13:31:28.267Z,7.00
2019-03-27T13:33:58.194Z,8.37
2019-03-27T13:36:28.553Z,10.50
2019-03-27T13:38:58.844Z,12.23
2019-03-27T13:41:29.241Z,8.37
2019-03-27T13:43:59.387Z,9.37
2019-03-27T13:46:29.282Z,9.43
2019-03-27T13:48:59.398Z,5.60
2019-03-27T13:51:39.986Z,8.03
2019-03-27T13:54:00.969Z,5.50
2019-03-27T13:56:31.178Z,10.70
2019-03-27T13:59:01.313Z,10.70
2019-03-27T14:01:31.445Z,6.40
2019-03-27T14:04:01.672Z,8.37
2019-03-27T14:06:32.549Z,6.37
2019-03-27T14:09:02.973Z,7.40
2019-03-27T14:11:33.409Z,8.87
2019-03-27T14:14:11.163Z,9.00
2019-03-27T14:16:35.808Z,10.20
2019-03-27T14:19:08.297Z,7.03
2019-03-27T14:21:38.502Z,6.53
2019-03-27T14:24:08.913Z,6.67
2019-03-27T14:26:45.474Z,8.60
2019-03-27T14:29:11.996Z,6.83
2019-03-27T14:31:42.464Z,9.40
2019-03-27T14:34:12.372Z,8.47
2019-03-27T14:36:42.803Z,11.33
2019-03-27T14:39:13.040Z,13.73
2019-03-27T14:41:43.372Z,8.80
2019-03-27T14:44:14.778Z,5.83
2019-03-27T14:46:45.231Z,7.87
2019-03-27T14:49:15.418Z,9.60
2019-03-27T14:51:46.484Z,12.23
2019-03-27T14:54:16.415Z,10.33
2019-03-27T14:56:46.931Z,9.80
2019-03-27T14:59:17.001Z,9.43
2019-03-27T15:01:47.198Z,15.60
2019-03-27T15:04:17.794Z,10.40
2019-03-27T15:06:48.072Z,8.63
2019-03-27T15:09:18.533Z,11.07
2019-03-27T15:11:48.465Z,12.03
2019-03-27T15:14:19.313Z,13.13
2019-03-27T15:16:49.273Z,12.77
2019-03-27T15:19:20.220Z,9.37
2019-03-27T15:21:51.008Z,11.17
2019-03-27T15:24:21.671Z,13.00
2019-03-27T15:26:55.086Z,13.50
2019-03-27T15:29:25.060Z,9.83
2019-03-27T15:31:55.303Z,13.00
2019-03-27T15:34:26.584Z,17.93
2019-03-27T15:36:56.761Z,15.87
2019-03-27T15:39:27.319Z,13.10
2019-03-27T15:41:58.099Z,15.73
2019-03-27T15:44:32.965Z,13.40
2019-03-27T15:47:05.579Z,8.03
2019-03-27T15:49:38.390Z,7.37
2019-03-27T15:52:11.273Z,9.97
2019-03-27T15:54:41.489Z,9.93
2019-03-27T15:57:12.895Z,12.77
2019-03-27T15:59:42.973Z,15.10
2019-03-27T16:02:13.856Z,8.47
2019-03-27T16:04:44.669Z,10.50
2019-03-27T16:07:15.057Z,11.20
2019-03-27T16:09:45.775Z,14.47
2019-03-27T16:12:15.762Z,14.37
2019-03-27T16:14:46.260Z,12.63
2019-03-27T16:17:16.420Z,13.77
2019-03-27T16:19:58.805Z,21.47
2019-03-27T16:22:31.945Z,19.63
2019-03-27T16:25:01.922Z,25.77
2019-03-27T16:27:32.276Z,16.37
2019-03-27T16:30:02.339Z,19.03
2019-03-27T16:32:32.745Z,23.00
2019-03-27T16:35:04.382Z,23.40
2019-03-27T16:37:34.619Z,20.87
2019-03-27T16:40:05.017Z,21.47
2019-03-27T16:42:34.989Z,27.53
2019-03-27T16:45:05.798Z,23.17
2019-03-27T16:47:35.930Z,24.27
2019-03-27T16:50:09.660Z,20.67
2019-03-27T16:52:43.575Z,23.97
2019-03-27T16:55:13.494Z,26.80
2019-03-27T16:57:43.757Z,22.30
2019-03-27T17:00:15.809Z,22.00
2019-03-27T17:02:46.313Z,21.33
2019-03-27T17:05:17.179Z,22.53
2019-03-27T17:07:48.702Z,21.40
2019-03-27T17:10:18.811Z,21.67
2019-03-27T17:12:49.682Z,19.33
2019-03-27T17:15:20.241Z,26.40
2019-03-27T17:17:50.333Z,24.93
2019-03-27T17:20:20.578Z,24.37
2019-03-27T17:22:50.657Z,20.63
2019-03-27T17:25:22.905Z,18.90
2019-03-27T17:27:55.748Z,23.23
2019-03-27T17:30:25.574Z,19.77
2019-03-27T17:32:55.568Z,20.00
2019-03-27T17:35:26.969Z,20.17
2019-03-27T17:37:58.394Z,19.87
2019-03-27T17:40:29.050Z,18.97
2019-03-27T17:42:59.223Z,17.23
2019-03-27T17:45:29.496Z,19.93
2019-03-27T17:47:59.629Z,25.87
2019-03-27T17:50:31.589Z,20.53
2019-03-27T17:53:01.722Z,18.13
2019-03-27T17:55:34.019Z,16.50
2019-03-27T17:58:04.068Z,18.87
2019-03-27T18:00:52.876Z,20.97
2019-03-27T18:03:24.294Z,14.37
2019-03-27T18:05:54.367Z,16.50
2019-03-27T18:08:26.798Z,17.40
2019-03-27T18:10:56.869Z,13.83
2019-03-27T18:13:26.803Z,13.37
2019-03-27T18:15:58.215Z,18.20
2019-03-27T18:18:31.025Z,14.03
2019-03-27T18:21:06.240Z,16.13
2019-03-27T18:23:45.760Z,14.73
2019-03-27T18:26:09.497Z,15.43
2019-03-27T18:28:39.388Z,12.80
2019-03-27T18:31:09.580Z,13.73
2019-03-27T18:33:39.792Z,13.20
2019-03-27T18:36:10.388Z,13.33
2019-03-27T18:38:40.391Z,13.40
2019-03-27T18:41:18.812Z,14.40
2019-03-27T18:43:52.140Z,11.47
2019-03-27T18:46:29.183Z,11.97
2019-03-27T18:49:00.736Z,11.30
2019-03-27T18:51:33.959Z,8.90
2019-03-27T18:54:19.373Z,16.00
2019-03-27T18:57:15.129Z,19.00
2019-03-27T18:59:45.147Z,11.33
2019-03-27T19:02:15.295Z,17.07
2019-03-27T19:04:46.445Z,13.97
2019-03-27T19:07:19.825Z,26.53
2019-03-27T19:09:52.046Z,19.53
2019-03-27T19:12:22.030Z,44.70
2019-03-27T19:14:55.673Z,22.27
2019-03-27T19:17:25.744Z,18.03
2019-03-27T19:19:55.675Z,16.47
2019-03-27T19:22:25.630Z,17.30
2019-03-27T19:24:56.008Z,14.33
2019-03-27T19:27:26.023Z,16.03
2019-03-27T19:29:56.231Z,16.07
2019-03-27T19:32:27.184Z,18.07
2019-03-27T19:34:57.510Z,16.10
2019-03-27T19:37:27.374Z,18.67
2019-03-27T19:40:00.817Z,16.70
2019-03-27T19:42:29.387Z,19.67
2019-03-27T19:44:59.678Z,18.67
2019-03-27T19:47:30.006Z,15.75
2019-03-27T19:49:59.972Z,17.67
2019-03-27T19:52:30.300Z,19.33
2019-03-27T19:55:00.559Z,19.77
2019-03-27T19:57:31.903Z,17.83
2019-03-27T20:00:02.005Z,24.37
2019-03-27T20:02:32.376Z,19.77
2019-03-27T20:05:02.419Z,19.77
2019-03-27T20:07:36.114Z,21.03
2019-03-27T20:10:04.639Z,22.43
2019-03-27T20:12:35.117Z,19.67
2019-03-27T20:15:11.725Z,19.93
2019-03-27T20:17:37.917Z,23.43
2019-03-27T20:20:08.835Z,23.40
2019-03-27T20:22:40.581Z,25.07
2019-03-27T20:25:11.346Z,22.00
2019-03-27T20:27:42.934Z,24.63
2019-03-27T20:30:17.455Z,23.27
2019-03-27T20:32:47.572Z,18.37
2019-03-27T20:35:17.546Z,20.80
2019-03-27T20:37:52.083Z,25.23
2019-03-27T20:40:27.498Z,22.17
2019-03-27T20:42:56.821Z,20.33
2019-03-27T20:45:27.118Z,26.13
2019-03-27T20:47:59.036Z,22.07
2019-03-27T20:50:32.824Z,22.93
2019-03-27T20:53:02.898Z,19.30
2019-03-27T20:55:33.320Z,27.20
2019-03-27T20:58:05.395Z,28.13
2019-03-27T21:00:35.797Z,22.77
2019-03-27T21:03:08.853Z,20.63
2019-03-27T21:05:39.235Z,24.60
2019-03-27T21:08:09.522Z,22.00
2019-03-27T21:10:42.056Z,22.73
2019-03-27T21:13:18.135Z,19.57
2019-03-27T21:15:51.548Z,19.47
2019-03-27T21:18:22.317Z,27.03
2019-03-27T21:20:52.877Z,24.73
2019-03-27T21:23:23.062Z,26.83
2019-03-27T21:25:53.284Z,24.97
2019-03-27T21:28:23.258Z,21.97
2019-03-27T21:30:53.473Z,22.87
2019-03-27T21:33:26.984Z,19.67
2019-03-27T21:35:58.935Z,21.70
2019-03-27T21:38:30.539Z,23.97
2019-03-27T21:41:00.807Z,25.17
2019-03-27T21:43:31.222Z,21.77
2019-03-27T21:46:02.579Z,23.20
2019-03-27T21:48:35.956Z,22.57
2019-03-27T21:51:06.179Z,19.40
2019-03-27T21:53:36.211Z,19.77
2019-03-27T21:56:07.806Z,26.33
2019-03-27T21:58:37.950Z,22.67
2019-03-27T22:01:08.364Z,22.93
2019-03-27T22:03:38.699Z,22.87
2019-03-27T22:06:08.993Z,27.97
2019-03-27T22:08:40.864Z,29.20
2019-03-27T22:11:13.460Z,21.40
2019-03-27T22:13:43.493Z,24.57
2019-03-27T22:16:15.826Z,24.20
2019-03-27T22:18:45.894Z,22.97
2019-03-27T22:21:15.939Z,24.07
2019-03-27T22:23:50.399Z,25.03
2019-03-27T22:26:20.503Z,20.97
2019-03-27T22:28:51.842Z,29.40
2019-03-27T22:31:22.517Z,30.90
2019-03-27T22:33:52.703Z,30.17
2019-03-27T22:36:23.114Z,26.27
2019-03-27T22:38:59.715Z,28.47
2019-03-27T22:41:30.041Z,25.87
2019-03-27T22:44:02.407Z,29.53
2019-03-27T22:46:36.265Z,27.73
2019-03-27T22:49:06.141Z,26.53
2019-03-27T22:51:39.381Z,29.90
2019-03-27T22:54:14.829Z,29.67
2019-03-27T22:56:44.884Z,27.13
2019-03-27T22:59:15.080Z,36.20
2019-03-27T23:01:48.046Z,36.63
2019-03-27T23:04:18.536Z,36.13
2019-03-27T23:06:48.592Z,32.37
2019-03-27T23:09:20.275Z,34.57
2019-03-27T23:11:50.371Z,30.33
2019-03-27T23:14:20.897Z,32.10
2019-03-27T23:16:51.497Z,32.73
2019-03-27T23:19:25.153Z,34.20
2019-03-27T23:21:55.647Z,35.10
2019-03-27T23:24:26.247Z,34.70
2019-03-27T23:27:04.309Z,33.20
2019-03-27T23:29:34.615Z,37.07
2019-03-27T23:32:16.907Z,31.80
2019-03-27T23:34:47.474Z,33.00
2019-03-27T23:37:17.693Z,35.87
2019-03-27T23:39:48.350Z,32.93
2019-03-27T23:42:18.844Z,31.77
2019-03-27T23:44:49.438Z,35.13
2019-03-27T23:47:20.394Z,35.27
2019-03-27T23:49:50.472Z,33.87
2019-03-27T23:52:20.785Z,36.93
2019-03-27T23:54:51.119Z,40.73
2019-03-27T23:57:21.819Z,36.23
2019-03-27T23:59:52.915Z,38.77
